sensor_id;sensor_type;location;lat;lon;timestamp;P1;durP1;ratioP1;P2;durP2;ratioP2
51238;SDS011;38154;47.548;18.828;2023-08-21T00:03:47;13.93;;;6.07;;
51238;SDS011;38154;47.548;18.828;2023-08-21T00:06:13;11.38;;;5.70;;
51238;SDS011;38154;47.548;18.828;2023-08-21T00:08:39;9.85;;;6.15;;
51238;SDS011;38154;47.548;18.828;2023-08-21T00:11:05;9.63;;;6.47;;
51238;SDS011;38154;47.548;18.828;2023-08-21T00:13:31;9.77;;;6.28;;
51238;SDS011;38154;47.548;18.828;2023-08-21T00:15:56;10.40;;;5.72;;
51238;SDS011;38154;47.548;18.828;2023-08-21T00:18:22;10.05;;;5.97;;
51238;SDS011;38154;47.548;18.828;2023-08-21T00:20:48;9.48;;;5.93;;
51238;SDS011;38154;47.548;18.828;2023-08-21T00:23:14;8.80;;;5.78;;
51238;SDS011;38154;47.548;18.828;2023-08-21T00:25:40;10.18;;;6.18;;
51238;SDS011;38154;47.548;18.828;2023-08-21T00:28:11;10.98;;;6.50;;
51238;SDS011;38154;47.548;18.828;2023-08-21T00:30:37;9.70;;;6.37;;
51238;SDS011;38154;47.548;18.828;2023-08-21T00:33:03;8.82;;;5.93;;
51238;SDS011;38154;47.548;18.828;2023-08-21T00:35:29;8.77;;;6.10;;
51238;SDS011;38154;47.548;18.828;2023-08-21T00:37:55;9.95;;;5.28;;
51238;SDS011;38154;47.548;18.828;2023-08-21T00:40:21;9.07;;;6.22;;
51238;SDS011;38154;47.548;18.828;2023-08-21T00:42:47;11.35;;;5.95;;
51238;SDS011;38154;47.548;18.828;2023-08-21T00:45:13;11.23;;;6.30;;
51238;SDS011;38154;47.548;18.828;2023-08-21T00:47:39;11.27;;;5.97;;
51238;SDS011;38154;47.548;18.828;2023-08-21T00:50:05;9.60;;;6.25;;
51238;SDS011;38154;47.548;18.828;2023-08-21T00:52:32;10.10;;;5.90;;
51238;SDS011;38154;47.548;18.828;2023-08-21T00:55:00;8.32;;;5.65;;
51238;SDS011;38154;47.548;18.828;2023-08-21T00:57:27;10.57;;;6.45;;
51238;SDS011;38154;47.548;18.828;2023-08-21T00:59:53;14.43;;;6.07;;
51238;SDS011;38154;47.548;18.828;2023-08-21T01:02:19;10.88;;;6.05;;
51238;SDS011;38154;47.548;18.828;2023-08-21T01:04:45;11.10;;;6.20;;
51238;SDS011;38154;47.548;18.828;2023-08-21T01:07:11;9.30;;;5.85;;
51238;SDS011;38154;47.548;18.828;2023-08-21T01:09:43;8.40;;;5.87;;
51238;SDS011;38154;47.548;18.828;2023-08-21T01:15:17;9.98;;;5.90;;
51238;SDS011;38154;47.548;18.828;2023-08-21T01:17:43;8.40;;;6.32;;
51238;SDS011;38154;47.548;18.828;2023-08-21T01:20:11;11.88;;;6.10;;
51238;SDS011;38154;47.548;18.828;2023-08-21T01:22:39;10.02;;;6.22;;
51238;SDS011;38154;47.548;18.828;2023-08-21T01:25:06;9.02;;;5.97;;
51238;SDS011;38154;47.548;18.828;2023-08-21T01:27:33;8.55;;;6.45;;
51238;SDS011;38154;47.548;18.828;2023-08-21T01:30:00;9.00;;;5.53;;
51238;SDS011;38154;47.548;18.828;2023-08-21T01:35:12;8.07;;;5.87;;
51238;SDS011;38154;47.548;18.828;2023-08-21T01:37:39;8.75;;;5.45;;
51238;SDS011;38154;47.548;18.828;2023-08-21T01:40:05;8.48;;;5.87;;
51238;SDS011;38154;47.548;18.828;2023-08-21T01:42:32;8.13;;;5.78;;
51238;SDS011;38154;47.548;18.828;2023-08-21T01:44:57;9.57;;;5.75;;
51238;SDS011;38154;47.548;18.828;2023-08-21T01:47:23;10.23;;;5.87;;
51238;SDS011;38154;47.548;18.828;2023-08-21T01:49:49;8.32;;;5.62;;
51238;SDS011;38154;47.548;18.828;2023-08-21T01:52:20;9.15;;;5.87;;
51238;SDS011;38154;47.548;18.828;2023-08-21T01:54:46;9.40;;;6.03;;
51238;SDS011;38154;47.548;18.828;2023-08-21T01:57:13;8.50;;;5.70;;
51238;SDS011;38154;47.548;18.828;2023-08-21T01:59:39;10.00;;;6.28;;
51238;SDS011;38154;47.548;18.828;2023-08-21T02:02:05;9.38;;;6.22;;
51238;SDS011;38154;47.548;18.828;2023-08-21T02:04:31;6.90;;;5.25;;
51238;SDS011;38154;47.548;18.828;2023-08-21T02:06:57;9.63;;;6.65;;
51238;SDS011;38154;47.548;18.828;2023-08-21T02:09:23;10.57;;;5.28;;
51238;SDS011;38154;47.548;18.828;2023-08-21T02:11:49;13.02;;;7.15;;
51238;SDS011;38154;47.548;18.828;2023-08-21T02:14:15;7.05;;;4.70;;
51238;SDS011;38154;47.548;18.828;2023-08-21T02:16:41;7.22;;;5.18;;
51238;SDS011;38154;47.548;18.828;2023-08-21T02:19:06;10.35;;;6.37;;
51238;SDS011;38154;47.548;18.828;2023-08-21T02:21:33;9.43;;;6.22;;
51238;SDS011;38154;47.548;18.828;2023-08-21T02:23:59;9.15;;;5.70;;
51238;SDS011;38154;47.548;18.828;2023-08-21T02:26:25;8.88;;;5.95;;
51238;SDS011;38154;47.548;18.828;2023-08-21T02:28:51;11.90;;;6.00;;
51238;SDS011;38154;47.548;18.828;2023-08-21T02:31:17;8.38;;;5.72;;
51238;SDS011;38154;47.548;18.828;2023-08-21T02:33:43;11.00;;;6.80;;
51238;SDS011;38154;47.548;18.828;2023-08-21T02:36:09;11.18;;;6.37;;
51238;SDS011;38154;47.548;18.828;2023-08-21T02:38:35;8.43;;;5.62;;
51238;SDS011;38154;47.548;18.828;2023-08-21T02:41:01;9.95;;;6.18;;
51238;SDS011;38154;47.548;18.828;2023-08-21T02:43:27;9.68;;;5.87;;
51238;SDS011;38154;47.548;18.828;2023-08-21T02:45:54;7.87;;;5.62;;
51238;SDS011;38154;47.548;18.828;2023-08-21T02:48:19;10.25;;;6.05;;
51238;SDS011;38154;47.548;18.828;2023-08-21T02:50:45;11.15;;;6.15;;
51238;SDS011;38154;47.548;18.828;2023-08-21T02:53:11;10.55;;;5.72;;
51238;SDS011;38154;47.548;18.828;2023-08-21T02:55:37;8.60;;;5.50;;
51238;SDS011;38154;47.548;18.828;2023-08-21T02:58:03;8.57;;;5.80;;
51238;SDS011;38154;47.548;18.828;2023-08-21T03:00:29;10.88;;;7.03;;
51238;SDS011;38154;47.548;18.828;2023-08-21T03:02:55;10.77;;;6.62;;
51238;SDS011;38154;47.548;18.828;2023-08-21T03:05:21;11.02;;;6.07;;
51238;SDS011;38154;47.548;18.828;2023-08-21T03:07:46;9.73;;;5.95;;
51238;SDS011;38154;47.548;18.828;2023-08-21T03:10:12;12.13;;;6.82;;
51238;SDS011;38154;47.548;18.828;2023-08-21T03:12:38;10.25;;;6.30;;
51238;SDS011;38154;47.548;18.828;2023-08-21T03:15:04;11.65;;;6.43;;
51238;SDS011;38154;47.548;18.828;2023-08-21T03:17:30;13.38;;;7.03;;
51238;SDS011;38154;47.548;18.828;2023-08-21T03:19:56;10.40;;;6.45;;
51238;SDS011;38154;47.548;18.828;2023-08-21T03:22:22;9.85;;;6.12;;
51238;SDS011;38154;47.548;18.828;2023-08-21T03:24:48;12.02;;;6.72;;
51238;SDS011;38154;47.548;18.828;2023-08-21T03:27:18;9.57;;;6.45;;
51238;SDS011;38154;47.548;18.828;2023-08-21T03:29:44;11.77;;;6.55;;
51238;SDS011;38154;47.548;18.828;2023-08-21T03:32:14;10.02;;;6.45;;
51238;SDS011;38154;47.548;18.828;2023-08-21T03:34:43;8.70;;;5.43;;
51238;SDS011;38154;47.548;18.828;2023-08-21T03:37:09;10.68;;;6.57;;
51238;SDS011;38154;47.548;18.828;2023-08-21T03:39:36;9.18;;;6.18;;
51238;SDS011;38154;47.548;18.828;2023-08-21T03:42:01;10.52;;;5.93;;
51238;SDS011;38154;47.548;18.828;2023-08-21T03:44:27;10.63;;;6.40;;
51238;SDS011;38154;47.548;18.828;2023-08-21T03:46:53;10.13;;;6.70;;
51238;SDS011;38154;47.548;18.828;2023-08-21T03:49:19;11.52;;;5.53;;
51238;SDS011;38154;47.548;18.828;2023-08-21T03:51:45;9.27;;;6.32;;
51238;SDS011;38154;47.548;18.828;2023-08-21T03:54:11;8.85;;;5.40;;
51238;SDS011;38154;47.548;18.828;2023-08-21T03:56:37;12.52;;;6.97;;
51238;SDS011;38154;47.548;18.828;2023-08-21T03:59:03;9.98;;;6.65;;
51238;SDS011;38154;47.548;18.828;2023-08-21T04:01:30;11.07;;;6.97;;
51238;SDS011;38154;47.548;18.828;2023-08-21T04:03:56;13.88;;;7.68;;
51238;SDS011;38154;47.548;18.828;2023-08-21T04:06:21;9.77;;;6.68;;
51238;SDS011;38154;47.548;18.828;2023-08-21T04:08:47;12.32;;;6.55;;
51238;SDS011;38154;47.548;18.828;2023-08-21T04:11:13;17.33;;;6.55;;
51238;SDS011;38154;47.548;18.828;2023-08-21T04:13:39;15.57;;;7.20;;
51238;SDS011;38154;47.548;18.828;2023-08-21T04:16:05;11.80;;;7.32;;
51238;SDS011;38154;47.548;18.828;2023-08-21T04:18:31;11.77;;;6.95;;
51238;SDS011;38154;47.548;18.828;2023-08-21T04:20:57;12.68;;;7.07;;
51238;SDS011;38154;47.548;18.828;2023-08-21T04:23:22;10.43;;;6.80;;
51238;SDS011;38154;47.548;18.828;2023-08-21T04:25:48;15.20;;;7.82;;
51238;SDS011;38154;47.548;18.828;2023-08-21T04:28:14;12.27;;;6.75;;
51238;SDS011;38154;47.548;18.828;2023-08-21T04:30:40;11.95;;;7.35;;
51238;SDS011;38154;47.548;18.828;2023-08-21T04:33:07;12.82;;;6.72;;
51238;SDS011;38154;47.548;18.828;2023-08-21T04:35:38;11.52;;;7.03;;
51238;SDS011;38154;47.548;18.828;2023-08-21T04:38:04;15.45;;;7.07;;
51238;SDS011;38154;47.548;18.828;2023-08-21T04:40:30;11.43;;;7.20;;
51238;SDS011;38154;47.548;18.828;2023-08-21T04:42:56;10.68;;;6.70;;
51238;SDS011;38154;47.548;18.828;2023-08-21T04:45:22;12.50;;;7.53;;
51238;SDS011;38154;47.548;18.828;2023-08-21T04:47:48;11.35;;;6.80;;
51238;SDS011;38154;47.548;18.828;2023-08-21T04:50:14;12.73;;;7.12;;
51238;SDS011;38154;47.548;18.828;2023-08-21T04:52:41;11.77;;;7.20;;
51238;SDS011;38154;47.548;18.828;2023-08-21T04:55:08;12.13;;;7.45;;
51238;SDS011;38154;47.548;18.828;2023-08-21T04:57:34;11.25;;;7.65;;
51238;SDS011;38154;47.548;18.828;2023-08-21T05:00:00;9.90;;;6.78;;
51238;SDS011;38154;47.548;18.828;2023-08-21T05:02:25;11.48;;;7.05;;
51238;SDS011;38154;47.548;18.828;2023-08-21T05:04:51;10.20;;;6.55;;
51238;SDS011;38154;47.548;18.828;2023-08-21T05:07:17;11.82;;;6.62;;
51238;SDS011;38154;47.548;18.828;2023-08-21T05:09:43;12.05;;;7.25;;
51238;SDS011;38154;47.548;18.828;2023-08-21T05:12:09;8.35;;;6.45;;
51238;SDS011;38154;47.548;18.828;2023-08-21T05:14:35;12.25;;;6.90;;
51238;SDS011;38154;47.548;18.828;2023-08-21T05:17:01;10.65;;;6.45;;
51238;SDS011;38154;47.548;18.828;2023-08-21T05:19:27;11.23;;;6.60;;
51238;SDS011;38154;47.548;18.828;2023-08-21T05:21:52;16.50;;;7.32;;
51238;SDS011;38154;47.548;18.828;2023-08-21T05:24:18;13.05;;;7.05;;
51238;SDS011;38154;47.548;18.828;2023-08-21T05:26:44;11.98;;;6.53;;
51238;SDS011;38154;47.548;18.828;2023-08-21T05:29:10;11.15;;;6.28;;
51238;SDS011;38154;47.548;18.828;2023-08-21T05:31:36;10.80;;;6.57;;
51238;SDS011;38154;47.548;18.828;2023-08-21T05:34:02;10.07;;;6.70;;
51238;SDS011;38154;47.548;18.828;2023-08-21T05:36:28;9.98;;;6.57;;
51238;SDS011;38154;47.548;18.828;2023-08-21T05:38:56;10.40;;;6.20;;
51238;SDS011;38154;47.548;18.828;2023-08-21T05:41:22;9.82;;;6.82;;
51238;SDS011;38154;47.548;18.828;2023-08-21T05:43:48;10.57;;;6.57;;
51238;SDS011;38154;47.548;18.828;2023-08-21T05:46:14;10.20;;;7.07;;
51238;SDS011;38154;47.548;18.828;2023-08-21T05:48:40;10.00;;;6.53;;
51238;SDS011;38154;47.548;18.828;2023-08-21T05:51:06;10.80;;;6.82;;
51238;SDS011;38154;47.548;18.828;2023-08-21T05:53:32;10.55;;;6.78;;
51238;SDS011;38154;47.548;18.828;2023-08-21T05:55:58;11.63;;;6.10;;
51238;SDS011;38154;47.548;18.828;2023-08-21T05:58:23;12.77;;;7.50;;
51238;SDS011;38154;47.548;18.828;2023-08-21T06:00:54;9.25;;;6.25;;
51238;SDS011;38154;47.548;18.828;2023-08-21T06:03:20;13.20;;;6.37;;
51238;SDS011;38154;47.548;18.828;2023-08-21T06:05:47;12.85;;;6.07;;
51238;SDS011;38154;47.548;18.828;2023-08-21T06:08:13;10.77;;;6.47;;
51238;SDS011;38154;47.548;18.828;2023-08-21T06:10:39;9.10;;;5.87;;
51238;SDS011;38154;47.548;18.828;2023-08-21T06:15:30;7.75;;;5.62;;
51238;SDS011;38154;47.548;18.828;2023-08-21T06:20:24;7.37;;;4.90;;
51238;SDS011;38154;47.548;18.828;2023-08-21T06:22:50;8.57;;;5.25;;
51238;SDS011;38154;47.548;18.828;2023-08-21T06:25:15;7.03;;;5.05;;
51238;SDS011;38154;47.548;18.828;2023-08-21T06:27:41;6.37;;;5.12;;
51238;SDS011;38154;47.548;18.828;2023-08-21T06:30:07;12.18;;;5.50;;
51238;SDS011;38154;47.548;18.828;2023-08-21T06:32:33;7.22;;;5.25;;
51238;SDS011;38154;47.548;18.828;2023-08-21T06:34:59;7.45;;;5.03;;
51238;SDS011;38154;47.548;18.828;2023-08-21T06:37:25;8.20;;;4.97;;
51238;SDS011;38154;47.548;18.828;2023-08-21T06:39:51;5.68;;;3.62;;
51238;SDS011;38154;47.548;18.828;2023-08-21T06:42:17;7.22;;;4.57;;
51238;SDS011;38154;47.548;18.828;2023-08-21T06:44:43;8.05;;;4.70;;
51238;SDS011;38154;47.548;18.828;2023-08-21T06:47:09;6.10;;;4.45;;
51238;SDS011;38154;47.548;18.828;2023-08-21T06:49:35;7.87;;;4.70;;
51238;SDS011;38154;47.548;18.828;2023-08-21T06:52:01;4.82;;;4.32;;
51238;SDS011;38154;47.548;18.828;2023-08-21T06:54:28;5.12;;;3.87;;
51238;SDS011;38154;47.548;18.828;2023-08-21T06:56:54;6.50;;;4.40;;
51238;SDS011;38154;47.548;18.828;2023-08-21T06:59:20;5.93;;;4.50;;
51238;SDS011;38154;47.548;18.828;2023-08-21T07:01:46;5.90;;;5.10;;
51238;SDS011;38154;47.548;18.828;2023-08-21T07:04:12;5.18;;;4.22;;
51238;SDS011;38154;47.548;18.828;2023-08-21T07:06:39;6.20;;;5.07;;
51238;SDS011;38154;47.548;18.828;2023-08-21T07:09:05;4.05;;;3.62;;
51238;SDS011;38154;47.548;18.828;2023-08-21T07:11:31;5.87;;;4.10;;
51238;SDS011;38154;47.548;18.828;2023-08-21T07:13:57;5.20;;;4.20;;
51238;SDS011;38154;47.548;18.828;2023-08-21T07:16:23;5.60;;;4.05;;
51238;SDS011;38154;47.548;18.828;2023-08-21T07:18:49;4.80;;;3.92;;
51238;SDS011;38154;47.548;18.828;2023-08-21T07:21:14;5.00;;;4.45;;
51238;SDS011;38154;47.548;18.828;2023-08-21T07:23:40;6.45;;;5.00;;
51238;SDS011;38154;47.548;18.828;2023-08-21T07:26:06;6.15;;;4.60;;
51238;SDS011;38154;47.548;18.828;2023-08-21T07:28:33;7.60;;;4.22;;
51238;SDS011;38154;47.548;18.828;2023-08-21T07:30:59;5.32;;;4.12;;
51238;SDS011;38154;47.548;18.828;2023-08-21T07:33:26;6.12;;;4.22;;
51238;SDS011;38154;47.548;18.828;2023-08-21T07:36:02;5.55;;;3.87;;
51238;SDS011;38154;47.548;18.828;2023-08-21T07:38:29;5.45;;;4.18;;
51238;SDS011;38154;47.548;18.828;2023-08-21T07:41:05;4.50;;;4.00;;
51238;SDS011;38154;47.548;18.828;2023-08-21T07:43:33;6.05;;;4.57;;
51238;SDS011;38154;47.548;18.828;2023-08-21T07:46:06;4.45;;;3.65;;
51238;SDS011;38154;47.548;18.828;2023-08-21T07:48:33;5.50;;;3.75;;
51238;SDS011;38154;47.548;18.828;2023-08-21T07:50:59;4.70;;;3.90;;
51238;SDS011;38154;47.548;18.828;2023-08-21T07:53:25;5.18;;;4.12;;
51238;SDS011;38154;47.548;18.828;2023-08-21T07:55:52;6.32;;;4.25;;
51238;SDS011;38154;47.548;18.828;2023-08-21T07:58:18;4.80;;;3.75;;
51238;SDS011;38154;47.548;18.828;2023-08-21T08:00:45;5.20;;;3.65;;
51238;SDS011;38154;47.548;18.828;2023-08-21T08:03:11;5.22;;;3.58;;
51238;SDS011;38154;47.548;18.828;2023-08-21T08:05:37;4.80;;;4.25;;
51238;SDS011;38154;47.548;18.828;2023-08-21T08:08:04;5.82;;;4.10;;
51238;SDS011;38154;47.548;18.828;2023-08-21T08:10:30;4.03;;;3.60;;
51238;SDS011;38154;47.548;18.828;2023-08-21T08:12:56;4.72;;;3.75;;
51238;SDS011;38154;47.548;18.828;2023-08-21T08:15:22;8.07;;;3.90;;
51238;SDS011;38154;47.548;18.828;2023-08-21T08:17:48;4.70;;;3.50;;
51238;SDS011;38154;47.548;18.828;2023-08-21T08:20:18;5.55;;;3.83;;
51238;SDS011;38154;47.548;18.828;2023-08-21T08:22:45;4.43;;;3.70;;
51238;SDS011;38154;47.548;18.828;2023-08-21T08:25:10;4.90;;;3.65;;
51238;SDS011;38154;47.548;18.828;2023-08-21T08:27:37;4.68;;;3.95;;
51238;SDS011;38154;47.548;18.828;2023-08-21T08:30:03;5.57;;;4.10;;
51238;SDS011;38154;47.548;18.828;2023-08-21T08:32:30;4.97;;;4.20;;
51238;SDS011;38154;47.548;18.828;2023-08-21T08:34:55;5.78;;;4.12;;
51238;SDS011;38154;47.548;18.828;2023-08-21T08:37:21;3.97;;;3.53;;
51238;SDS011;38154;47.548;18.828;2023-08-21T08:39:47;4.43;;;3.45;;
51238;SDS011;38154;47.548;18.828;2023-08-21T08:42:14;5.43;;;3.55;;
51238;SDS011;38154;47.548;18.828;2023-08-21T08:44:41;6.25;;;4.05;;
51238;SDS011;38154;47.548;18.828;2023-08-21T08:47:08;4.93;;;3.58;;
51238;SDS011;38154;47.548;18.828;2023-08-21T08:49:36;4.10;;;3.50;;
51238;SDS011;38154;47.548;18.828;2023-08-21T08:52:03;5.35;;;3.70;;
51238;SDS011;38154;47.548;18.828;2023-08-21T08:54:30;5.78;;;4.10;;
51238;SDS011;38154;47.548;18.828;2023-08-21T08:56:56;5.15;;;3.87;;
51238;SDS011;38154;47.548;18.828;2023-08-21T08:59:23;3.78;;;3.47;;
51238;SDS011;38154;47.548;18.828;2023-08-21T09:01:49;5.72;;;4.47;;
51238;SDS011;38154;47.548;18.828;2023-08-21T09:04:15;5.47;;;3.72;;
51238;SDS011;38154;47.548;18.828;2023-08-21T09:06:42;5.45;;;3.85;;
51238;SDS011;38154;47.548;18.828;2023-08-21T09:09:08;4.97;;;3.53;;
51238;SDS011;38154;47.548;18.828;2023-08-21T09:11:36;5.25;;;3.95;;
51238;SDS011;38154;47.548;18.828;2023-08-21T09:14:07;5.87;;;4.55;;
51238;SDS011;38154;47.548;18.828;2023-08-21T09:16:33;5.93;;;4.37;;
51238;SDS011;38154;47.548;18.828;2023-08-21T09:18:59;5.97;;;4.18;;
51238;SDS011;38154;47.548;18.828;2023-08-21T09:21:25;6.18;;;4.45;;
51238;SDS011;38154;47.548;18.828;2023-08-21T09:23:57;4.47;;;3.78;;
51238;SDS011;38154;47.548;18.828;2023-08-21T09:26:25;4.12;;;3.70;;
51238;SDS011;38154;47.548;18.828;2023-08-21T09:28:52;6.62;;;4.30;;
51238;SDS011;38154;47.548;18.828;2023-08-21T09:31:36;6.62;;;4.22;;
51238;SDS011;38154;47.548;18.828;2023-08-21T09:34:03;7.10;;;4.55;;
51238;SDS011;38154;47.548;18.828;2023-08-21T09:36:32;8.10;;;4.57;;
51238;SDS011;38154;47.548;18.828;2023-08-21T09:38:59;5.30;;;4.07;;
51238;SDS011;38154;47.548;18.828;2023-08-21T09:41:26;5.20;;;3.60;;
51238;SDS011;38154;47.548;18.828;2023-08-21T09:43:52;5.97;;;3.55;;
51238;SDS011;38154;47.548;18.828;2023-08-21T09:46:25;5.20;;;3.80;;
51238;SDS011;38154;47.548;18.828;2023-08-21T09:48:53;7.55;;;4.47;;
51238;SDS011;38154;47.548;18.828;2023-08-21T09:51:19;4.45;;;3.35;;
51238;SDS011;38154;47.548;18.828;2023-08-21T09:53:49;4.65;;;3.40;;
51238;SDS011;38154;47.548;18.828;2023-08-21T09:56:18;4.95;;;4.30;;
51238;SDS011;38154;47.548;18.828;2023-08-21T09:58:48;7.07;;;4.70;;
51238;SDS011;38154;47.548;18.828;2023-08-21T10:01:14;4.82;;;3.65;;
51238;SDS011;38154;47.548;18.828;2023-08-21T10:03:42;4.87;;;3.87;;
51238;SDS011;38154;47.548;18.828;2023-08-21T10:06:14;5.15;;;3.78;;
51238;SDS011;38154;47.548;18.828;2023-08-21T10:08:44;5.05;;;3.40;;
51238;SDS011;38154;47.548;18.828;2023-08-21T10:11:11;3.95;;;3.37;;
51238;SDS011;38154;47.548;18.828;2023-08-21T10:13:38;4.43;;;3.80;;
51238;SDS011;38154;47.548;18.828;2023-08-21T10:16:05;4.85;;;4.00;;
51238;SDS011;38154;47.548;18.828;2023-08-21T10:18:33;4.32;;;3.70;;
51238;SDS011;38154;47.548;18.828;2023-08-21T10:21:10;4.82;;;4.07;;
51238;SDS011;38154;47.548;18.828;2023-08-21T10:23:40;5.62;;;4.22;;
51238;SDS011;38154;47.548;18.828;2023-08-21T10:26:07;6.40;;;4.18;;
51238;SDS011;38154;47.548;18.828;2023-08-21T10:29:08;5.35;;;4.20;;
51238;SDS011;38154;47.548;18.828;2023-08-21T10:31:32;5.43;;;4.10;;
51238;SDS011;38154;47.548;18.828;2023-08-21T10:34:04;4.65;;;3.67;;
51238;SDS011;38154;47.548;18.828;2023-08-21T10:39:13;4.45;;;3.50;;
51238;SDS011;38154;47.548;18.828;2023-08-21T10:41:40;4.80;;;4.10;;
51238;SDS011;38154;47.548;18.828;2023-08-21T10:44:07;11.93;;;4.35;;
51238;SDS011;38154;47.548;18.828;2023-08-21T10:46:52;4.60;;;3.92;;
51238;SDS011;38154;47.548;18.828;2023-08-21T10:49:18;4.17;;;3.70;;
51238;SDS011;38154;47.548;18.828;2023-08-21T10:51:44;6.22;;;4.12;;
51238;SDS011;38154;47.548;18.828;2023-08-21T10:54:11;7.55;;;4.30;;
51238;SDS011;38154;47.548;18.828;2023-08-21T10:56:38;5.85;;;4.40;;
51238;SDS011;38154;47.548;18.828;2023-08-21T10:59:04;5.35;;;4.68;;
51238;SDS011;38154;47.548;18.828;2023-08-21T11:01:43;5.28;;;3.92;;
51238;SDS011;38154;47.548;18.828;2023-08-21T11:04:11;5.28;;;3.97;;
51238;SDS011;38154;47.548;18.828;2023-08-21T11:06:38;5.10;;;4.18;;
51238;SDS011;38154;47.548;18.828;2023-08-21T11:09:05;5.10;;;4.40;;
51238;SDS011;38154;47.548;18.828;2023-08-21T11:11:37;4.43;;;4.03;;
51238;SDS011;38154;47.548;18.828;2023-08-21T11:14:03;5.15;;;4.32;;
51238;SDS011;38154;47.548;18.828;2023-08-21T11:16:29;7.18;;;4.65;;
51238;SDS011;38154;47.548;18.828;2023-08-21T11:18:55;4.68;;;4.10;;
51238;SDS011;38154;47.548;18.828;2023-08-21T11:21:22;7.10;;;4.10;;
51238;SDS011;38154;47.548;18.828;2023-08-21T11:23:48;4.72;;;3.70;;
51238;SDS011;38154;47.548;18.828;2023-08-21T11:26:14;5.35;;;3.87;;
51238;SDS011;38154;47.548;18.828;2023-08-21T11:28:40;6.18;;;4.20;;
51238;SDS011;38154;47.548;18.828;2023-08-21T11:31:06;5.30;;;4.30;;
51238;SDS011;38154;47.548;18.828;2023-08-21T11:33:32;7.70;;;4.12;;
51238;SDS011;38154;47.548;18.828;2023-08-21T11:35:59;5.12;;;4.37;;
51238;SDS011;38154;47.548;18.828;2023-08-21T11:38:26;5.43;;;4.30;;
51238;SDS011;38154;47.548;18.828;2023-08-21T11:43:19;4.55;;;4.12;;
51238;SDS011;38154;47.548;18.828;2023-08-21T11:45:45;5.30;;;4.18;;
51238;SDS011;38154;47.548;18.828;2023-08-21T11:48:11;4.62;;;3.83;;
51238;SDS011;38154;47.548;18.828;2023-08-21T11:50:38;5.35;;;4.30;;
51238;SDS011;38154;47.548;18.828;2023-08-21T11:53:05;6.37;;;4.57;;
51238;SDS011;38154;47.548;18.828;2023-08-21T11:55:31;5.20;;;3.97;;
51238;SDS011;38154;47.548;18.828;2023-08-21T11:57:57;4.90;;;4.18;;
51238;SDS011;38154;47.548;18.828;2023-08-21T12:00:29;4.87;;;4.20;;
51238;SDS011;38154;47.548;18.828;2023-08-21T12:02:56;8.90;;;5.05;;
51238;SDS011;38154;47.548;18.828;2023-08-21T12:05:23;5.90;;;3.72;;
51238;SDS011;38154;47.548;18.828;2023-08-21T12:07:50;4.78;;;3.97;;
51238;SDS011;38154;47.548;18.828;2023-08-21T12:10:25;6.60;;;4.57;;
51238;SDS011;38154;47.548;18.828;2023-08-21T12:12:52;7.37;;;3.55;;
51238;SDS011;38154;47.548;18.828;2023-08-21T12:15:18;10.18;;;4.12;;
51238;SDS011;38154;47.548;18.828;2023-08-21T12:17:44;6.28;;;4.60;;
51238;SDS011;38154;47.548;18.828;2023-08-21T12:20:10;5.47;;;3.50;;
51238;SDS011;38154;47.548;18.828;2023-08-21T12:22:37;5.47;;;4.30;;
51238;SDS011;38154;47.548;18.828;2023-08-21T12:25:04;5.07;;;4.22;;
51238;SDS011;38154;47.548;18.828;2023-08-21T12:27:30;5.28;;;4.05;;
51238;SDS011;38154;47.548;18.828;2023-08-21T12:29:56;9.35;;;4.37;;
51238;SDS011;38154;47.548;18.828;2023-08-21T12:32:22;4.87;;;4.03;;
51238;SDS011;38154;47.548;18.828;2023-08-21T12:34:48;7.62;;;4.82;;
51238;SDS011;38154;47.548;18.828;2023-08-21T12:37:14;8.18;;;4.65;;
51238;SDS011;38154;47.548;18.828;2023-08-21T12:39:40;4.55;;;3.87;;
51238;SDS011;38154;47.548;18.828;2023-08-21T12:42:06;5.82;;;4.12;;
51238;SDS011;38154;47.548;18.828;2023-08-21T12:44:33;7.43;;;4.95;;
51238;SDS011;38154;47.548;18.828;2023-08-21T12:46:59;5.80;;;4.43;;
51238;SDS011;38154;47.548;18.828;2023-08-21T12:49:25;7.12;;;5.00;;
51238;SDS011;38154;47.548;18.828;2023-08-21T12:51:52;7.18;;;4.62;;
51238;SDS011;38154;47.548;18.828;2023-08-21T12:54:18;6.43;;;4.45;;
51238;SDS011;38154;47.548;18.828;2023-08-21T12:56:44;5.78;;;4.78;;
51238;SDS011;38154;47.548;18.828;2023-08-21T12:59:10;5.25;;;4.30;;
51238;SDS011;38154;47.548;18.828;2023-08-21T13:01:35;7.30;;;4.40;;
51238;SDS011;38154;47.548;18.828;2023-08-21T13:04:03;7.45;;;4.32;;
51238;SDS011;38154;47.548;18.828;2023-08-21T13:06:29;5.62;;;4.53;;
51238;SDS011;38154;47.548;18.828;2023-08-21T13:08:55;4.62;;;4.10;;
51238;SDS011;38154;47.548;18.828;2023-08-21T13:11:21;6.03;;;4.57;;
51238;SDS011;38154;47.548;18.828;2023-08-21T13:13:47;5.95;;;4.60;;
51238;SDS011;38154;47.548;18.828;2023-08-21T13:16:13;6.50;;;4.45;;
51238;SDS011;38154;47.548;18.828;2023-08-21T13:18:39;7.40;;;5.03;;
51238;SDS011;38154;47.548;18.828;2023-08-21T13:21:05;6.68;;;4.53;;
51238;SDS011;38154;47.548;18.828;2023-08-21T13:23:30;5.93;;;4.60;;
51238;SDS011;38154;47.548;18.828;2023-08-21T13:25:57;7.57;;;5.20;;
51238;SDS011;38154;47.548;18.828;2023-08-21T13:28:23;6.82;;;5.00;;
51238;SDS011;38154;47.548;18.828;2023-08-21T13:30:49;6.70;;;4.70;;
51238;SDS011;38154;47.548;18.828;2023-08-21T13:33:15;6.20;;;4.78;;
51238;SDS011;38154;47.548;18.828;2023-08-21T13:35:46;5.43;;;4.28;;
51238;SDS011;38154;47.548;18.828;2023-08-21T13:38:14;5.70;;;4.32;;
51238;SDS011;38154;47.548;18.828;2023-08-21T13:40:41;6.03;;;4.50;;
51238;SDS011;38154;47.548;18.828;2023-08-21T13:43:07;5.37;;;4.10;;
51238;SDS011;38154;47.548;18.828;2023-08-21T13:45:35;7.55;;;5.05;;
51238;SDS011;38154;47.548;18.828;2023-08-21T13:48:01;6.35;;;4.75;;
51238;SDS011;38154;47.548;18.828;2023-08-21T13:50:27;6.12;;;4.28;;
51238;SDS011;38154;47.548;18.828;2023-08-21T13:52:53;5.90;;;4.22;;
51238;SDS011;38154;47.548;18.828;2023-08-21T13:55:19;6.78;;;4.68;;
51238;SDS011;38154;47.548;18.828;2023-08-21T13:57:45;6.78;;;4.22;;
51238;SDS011;38154;47.548;18.828;2023-08-21T14:00:11;5.82;;;4.20;;
51238;SDS011;38154;47.548;18.828;2023-08-21T14:02:37;6.05;;;3.90;;
51238;SDS011;38154;47.548;18.828;2023-08-21T14:05:04;7.55;;;4.22;;
51238;SDS011;38154;47.548;18.828;2023-08-21T14:07:31;5.35;;;4.65;;
51238;SDS011;38154;47.548;18.828;2023-08-21T14:09:57;8.57;;;4.60;;
51238;SDS011;38154;47.548;18.828;2023-08-21T14:12:23;6.30;;;5.07;;
51238;SDS011;38154;47.548;18.828;2023-08-21T14:14:49;7.32;;;4.65;;
51238;SDS011;38154;47.548;18.828;2023-08-21T14:17:15;4.95;;;4.00;;
51238;SDS011;38154;47.548;18.828;2023-08-21T14:19:41;5.75;;;4.72;;
51238;SDS011;38154;47.548;18.828;2023-08-21T14:22:07;6.90;;;4.10;;
51238;SDS011;38154;47.548;18.828;2023-08-21T14:24:33;6.32;;;4.53;;
51238;SDS011;38154;47.548;18.828;2023-08-21T14:26:59;7.70;;;4.37;;
51238;SDS011;38154;47.548;18.828;2023-08-21T14:29:25;6.85;;;3.92;;
51238;SDS011;38154;47.548;18.828;2023-08-21T14:31:51;4.65;;;4.12;;
51238;SDS011;38154;47.548;18.828;2023-08-21T14:34:19;8.32;;;4.07;;
51238;SDS011;38154;47.548;18.828;2023-08-21T14:36:48;5.95;;;4.22;;
51238;SDS011;38154;47.548;18.828;2023-08-21T14:39:14;5.07;;;4.05;;
51238;SDS011;38154;47.548;18.828;2023-08-21T14:41:41;6.22;;;4.50;;
51238;SDS011;38154;47.548;18.828;2023-08-21T14:44:07;12.05;;;4.80;;
51238;SDS011;38154;47.548;18.828;2023-08-21T14:46:33;5.95;;;4.20;;